Time;durP1;ratioP1;P1;durP2;ratioP2;P2;SDS_P1;SDS_P2;PMS_P1;PMS_P2;Temp;Humidity;BMP_temperature;BMP_pressure;BME280_temperature;BME280_humidity;BME280_pressure;Samples;Min_cycle;Max_cycle;Signal;HPM_P1;HPM_P2
2022/05/24 00:00:49;;;;;;;6.38;2.22;;;;;;;15.72;95.97;95334.22;5091066;28;20067;-77
2022/05/24 00:03:17;;;;;;;7.35;2.70;;;;;;;15.59;96.34;95332.84;5090696;28;20044;-78
2022/05/24 00:05:44;;;;;;;5.53;3.00;;;;;;;15.58;97.65;95331.28;5090748;28;20043;-77
2022/05/24 00:08:10;;;;;;;4.00;2.38;;;;;;;15.58;97.91;95325.78;5090271;28;20052;-77
2022/05/24 00:10:37;;;;;;;6.13;2.67;;;;;;;15.61;98.33;95323.09;5090532;28;20040;-77
2022/05/24 00:13:07;;;;;;;7.78;2.80;;;;;;;15.66;98.51;95322.00;5089903;28;20517;-77
2022/05/24 00:15:34;;;;;;;4.75;2.08;;;;;;;15.68;98.44;95322.41;5090474;28;20047;-76
2022/05/24 00:18:02;;;;;;;6.60;2.30;;;;;;;15.72;97.65;95315.00;5091486;28;20138;-78
2022/05/24 00:20:32;;;;;;;5.47;2.30;;;;;;;15.72;97.26;95328.72;5095019;28;20036;-79
2022/05/24 00:22:59;;;;;;;6.47;2.10;;;;;;;15.71;97.31;95329.88;5096428;28;20494;-77
2022/05/24 00:25:26;;;;;;;4.15;2.00;;;;;;;15.69;96.97;95326.72;5091742;28;20056;-78
2022/05/24 00:27:53;;;;;;;6.35;2.00;;;;;;;15.72;97.03;95325.19;5091065;28;20559;-77
2022/05/24 00:30:22;;;;;;;6.03;2.53;;;;;;;15.69;97.09;95323.97;5090385;28;20044;-78
2022/05/24 00:32:49;;;;;;;4.05;2.03;;;;;;;15.72;96.98;95322.44;5089992;28;20036;-78
2022/05/24 00:35:16;;;;;;;7.05;2.40;;;;;;;15.75;97.18;95319.72;5090065;28;20097;-78
2022/05/24 00:37:46;;;;;;;6.85;2.40;;;;;;;15.67;97.17;95318.09;5096760;28;20043;-76
2022/05/24 00:40:23;;;;;;;3.97;2.42;;;;;;;15.64;96.95;95318.81;5097789;28;20514;-77
2022/05/24 00:42:51;;;;;;;4.82;2.22;;;;;;;15.69;97.16;95314.97;5096868;28;20048;-78
2022/05/24 00:45:24;;;;;;;6.25;2.40;;;;;;;15.78;96.84;95318.97;5096977;28;20105;-78
2022/05/24 00:47:53;;;;;;;;;;;;;;;15.73;96.78;95311.09;5098107;28;20044;-77
2022/05/24 00:50:24;;;;;;;4.60;2.38;;;;;;;15.59;97.28;95310.91;5096153;28;20002;-78
2022/05/24 00:52:56;;;;;;;8.25;2.28;;;;;;;15.58;98.12;95303.84;5097140;28;20642;-77
2022/05/24 00:55:25;;;;;;;2.78;2.00;;;;;;;15.69;98.36;95302.03;5096836;28;20575;-78
2022/05/24 00:58:03;;;;;;;3.63;1.92;;;;;;;15.74;97.94;95303.63;5098144;28;20048;-77
2022/05/24 01:00:31;;;;;;;8.05;2.70;;;;;;;15.81;97.59;95301.75;5098320;28;20046;-77
2022/05/24 01:02:58;;;;;;;4.47;1.90;;;;;;;15.69;97.15;95304.75;5098888;28;20051;-77
2022/05/24 01:05:28;;;;;;;5.05;2.15;;;;;;;15.59;97.43;95305.41;5096693;28;20439;-77
2022/05/24 01:07:54;;;;;;;5.18;2.30;;;;;;;15.47;98.17;95309.22;5096674;28;20085;-78
2022/05/24 01:10:26;;;;;;;3.63;2.30;;;;;;;15.55;98.92;95304.56;5096326;28;20048;-78
2022/05/24 01:12:59;;;;;;;6.93;2.67;;;;;;;15.53;98.81;95310.44;5096880;28;20047;-78
2022/05/24 01:15:26;;;;;;;4.55;2.53;;;;;;;15.58;98.91;95309.31;5095908;28;20036;-78
2022/05/24 01:17:56;;;;;;;4.63;2.67;;;;;;;15.59;99.26;95311.69;5096732;28;20044;-77
2022/05/24 01:20:23;;;;;;;6.53;2.70;;;;;;;15.54;99.30;95316.72;5090881;28;20039;-78
2022/05/24 01:23:20;;;;;;;6.18;2.67;;;;;;;15.59;99.52;95319.13;5096637;28;20059;-77
2022/05/24 01:25:56;;;;;;;5.45;2.78;;;;;;;15.58;99.76;95314.81;5096594;28;20415;-77
2022/05/24 01:28:27;;;;;;;5.35;3.10;;;;;;;15.65;100.00;95323.13;5095796;28;20043;-78
2022/05/24 01:30:56;;;;;;;5.53;3.10;;;;;;;15.51;99.57;95315.53;5096552;28;20047;-78
2022/05/24 01:36:13;;;;;;;8.25;3.42;;;;;;;15.59;100.00;95310.91;5096117;28;20176;-78
2022/05/24 01:38:45;;;;;;;7.30;2.75;;;;;;;15.61;100.00;95308.59;5096526;28;20044;-78
2022/05/24 01:41:15;;;;;;;8.20;3.43;;;;;;;15.57;99.59;95313.25;5096220;28;20040;-77
2022/05/24 01:43:43;;;;;;;6.10;3.25;;;;;;;15.50;99.90;95299.41;5096346;28;20176;-78
2022/05/24 01:46:12;;;;;;;5.43;3.28;;;;;;;15.56;100.00;95300.69;5095940;28;20564;-77
2022/05/24 01:48:42;;;;;;;6.90;3.42;;;;;;;15.62;100.00;95301.94;5091194;28;20040;-78
2022/05/24 01:51:12;;;;;;;6.78;3.17;;;;;;;15.56;99.56;95303.44;5074160;28;20052;-77
2022/05/24 01:53:48;;;;;;;6.07;3.20;;;;;;;15.50;99.68;95310.41;5073456;28;20523;-78
2022/05/24 01:56:18;;;;;;;7.32;3.80;;;;;;;15.37;99.92;95305.16;5072732;28;20047;-78
2022/05/24 01:58:50;;;;;;;6.55;3.22;;;;;;;15.32;100.00;95313.72;5072868;28;20044;-77
2022/05/24 02:01:26;;;;;;;8.60;3.97;;;;;;;15.25;100.00;95312.88;5072814;28;20051;-77
2022/05/24 02:03:53;;;;;;;5.88;3.17;;;;;;;15.29;100.00;95308.97;5073152;28;20048;-77
2022/05/24 02:06:22;;;;;;;10.82;3.38;;;;;;;15.27;100.00;95300.34;5073146;28;20491;-77
2022/05/24 02:08:49;;;;;;;5.93;3.30;;;;;;;15.27;100.00;95302.31;5073082;28;20048;-78
2022/05/24 02:11:18;;;;;;;6.38;3.70;;;;;;;15.30;100.00;95287.84;5071718;28;20052;-78
2022/05/24 02:13:51;;;;;;;9.18;3.75;;;;;;;15.25;100.00;95294.47;5083049;28;20047;-78
2022/05/24 02:16:22;;;;;;;6.28;4.07;;;;;;;15.27;100.00;95292.13;5092650;28;20430;-78
2022/05/24 02:18:52;;;;;;;8.68;3.83;;;;;;;15.32;100.00;95294.53;5093294;28;20065;-78
2022/05/24 02:21:18;;;;;;;11.00;3.70;;;;;;;15.37;100.00;95294.19;5092674;28;20048;-78
2022/05/24 02:23:48;;;;;;;6.38;3.40;;;;;;;15.37;100.00;95296.94;5093195;28;20479;-78
2022/05/24 02:26:17;;;;;;;6.55;3.67;;;;;;;15.43;100.00;95291.91;5096419;28;20068;-78
2022/05/24 02:28:44;;;;;;;4.22;3.00;;;;;;;15.42;100.00;95297.78;5099473;28;20040;-77
2022/05/24 02:31:17;;;;;;;9.85;3.67;;;;;;;15.47;100.00;95287.25;5093227;28;20044;-78
2022/05/24 02:33:44;;;;;;;6.95;3.35;;;;;;;15.48;100.00;95280.59;5092673;28;20503;-77
2022/05/24 02:36:10;;;;;;;8.90;3.13;;;;;;;15.44;100.00;95278.97;5092935;28;20503;-76
2022/05/24 02:38:37;;;;;;;6.05;3.72;;;;;;;15.40;100.00;95271.53;5093263;28;20055;-77
2022/05/24 02:43:48;;;;;;;7.80;3.60;;;;;;;15.54;100.00;95259.88;5093956;28;20043;-78
2022/05/24 02:46:18;;;;;;;9.63;3.45;;;;;;;15.55;100.00;95253.22;5094310;28;20483;-78
2022/05/24 02:48:44;;;;;;;8.50;3.60;;;;;;;15.48;100.00;95255.13;5095212;28;20040;-78
2022/05/24 02:51:13;;;;;;;6.28;4.10;;;;;;;15.50;100.00;95263.75;5093257;28;20040;-77
2022/05/24 02:53:41;;;;;;;6.55;3.92;;;;;;;15.45;100.00;95255.88;5093116;28;20071;-78
2022/05/24 02:56:09;;;;;;;7.70;3.50;;;;;;;15.51;100.00;95254.38;5091889;28;20051;-77
2022/05/24 02:58:36;;;;;;;6.28;3.97;;;;;;;15.43;100.00;95258.19;5092881;28;20042;-77
2022/05/24 03:01:04;;;;;;;5.57;3.70;;;;;;;15.50;100.00;95256.31;5091887;28;20044;-77
2022/05/24 03:03:32;;;;;;;6.35;4.18;;;;;;;15.49;100.00;95246.50;5092626;28;20051;-77
2022/05/24 03:05:58;;;;;;;13.05;7.97;;;;;;;15.45;100.00;95255.88;5092702;28;20036;-77
2022/05/24 03:11:10;;;;;;;9.25;4.03;;;;;;;15.56;100.00;95252.09;5091478;28;20054;-77
2022/05/24 03:16:21;;;;;;;6.13;3.53;;;;;;;15.40;100.00;95262.50;5081584;28;20063;-77
2022/05/24 03:18:49;;;;;;;7.97;4.10;;;;;;;15.44;100.00;95266.06;5090776;28;20080;-77
2022/05/24 03:21:15;;;;;;;6.47;3.42;;;;;;;15.49;100.00;95264.94;5091650;28;20044;-77
2022/05/24 03:23:42;;;;;;;5.95;3.20;;;;;;;15.33;100.00;95260.44;5091844;28;20054;-77
2022/05/24 03:26:08;;;;;;;7.53;3.30;;;;;;;15.32;100.00;95264.34;5090599;28;20044;-78
2022/05/24 03:28:37;;;;;;;9.35;3.80;;;;;;;15.39;100.00;95256.19;5091818;28;20048;-78
2022/05/24 03:31:04;;;;;;;7.82;3.50;;;;;;;15.34;100.00;95262.03;5091128;28;20080;-78
2022/05/24 03:33:31;;;;;;;6.55;3.58;;;;;;;15.44;100.00;95259.78;5091560;28;20483;-78
2022/05/24 03:35:59;;;;;;;9.10;3.70;;;;;;;15.39;100.00;95264.44;5091352;28;20067;-77
2022/05/24 03:38:27;;;;;;;7.05;3.60;;;;;;;15.33;99.94;95260.44;5090806;28;20060;-78
2022/05/24 03:40:53;;;;;;;8.38;3.40;;;;;;;15.26;100.00;95257.63;5091204;28;20052;-76
2022/05/24 03:43:20;;;;;;;5.25;3.20;;;;;;;15.26;100.00;95260.38;5085942;28;20466;-77
2022/05/24 03:45:47;;;;;;;7.18;3.25;;;;;;;15.34;100.00;95261.22;5070959;28;20048;-77
2022/05/24 03:48:14;;;;;;;5.88;3.13;;;;;;;15.46;100.00;95254.72;5070489;28;20099;-78
2022/05/24 03:50:40;;;;;;;7.47;3.38;;;;;;;15.37;99.32;95265.97;5070729;28;20052;-78
2022/05/24 03:53:08;;;;;;;5.75;3.20;;;;;;;15.46;99.11;95263.75;5070204;28;20052;-77
2022/05/24 03:55:35;;;;;;;5.30;3.35;;;;;;;15.49;98.81;95265.72;5070637;28;20052;-78
2022/05/24 03:58:01;;;;;;;5.80;3.28;;;;;;;15.50;98.34;95263.75;5070310;28;20071;-78
2022/05/24 04:00:30;;;;;;;4.25;2.80;;;;;;;15.58;98.31;95257.19;5070686;28;20097;-77
2022/05/24 04:02:57;;;;;;;5.55;3.00;;;;;;;15.62;97.80;95260.75;5070549;28;20052;-78
2022/05/24 04:05:24;;;;;;;8.32;3.22;;;;;;;15.62;97.79;95266.25;5070146;28;20037;-78
2022/05/24 04:07:50;;;;;;;6.93;3.50;;;;;;;15.64;97.71;95263.94;5070569;28;20053;-78
2022/05/24 04:10:20;;;;;;;5.38;3.10;;;;;;;15.62;96.82;95271.75;5069830;28;20049;-77
2022/05/24 04:12:47;;;;;;;8.45;3.00;;;;;;;15.47;96.87;95281.00;5074193;28;20048;-78
2022/05/24 04:15:14;;;;;;;6.10;2.80;;;;;;;15.53;96.74;95279.47;5090551;28;20044;-78
2022/05/24 04:17:41;;;;;;;10.90;3.03;;;;;;;15.53;96.79;95279.47;5091757;28;20097;-77
2022/05/24 04:20:09;;;;;;;5.68;2.83;;;;;;;15.55;96.63;95275.19;5090728;28;20045;-78
2022/05/24 04:22:36;;;;;;;6.57;3.42;;;;;;;15.63;96.34;95267.84;5090393;28;20143;-78
2022/05/24 04:25:03;;;;;;;6.45;2.67;;;;;;;15.73;96.13;95263.66;5089909;28;20051;-78
2022/05/24 04:27:31;;;;;;;5.93;3.38;;;;;;;15.84;95.52;95267.28;5090483;28;20044;-78
2022/05/24 04:29:58;;;;;;;5.75;3.47;;;;;;;15.90;95.25;95266.53;5091142;28;20048;-78
2022/05/24 04:32:24;;;;;;;6.50;2.90;;;;;;;15.95;94.72;95272.88;5094592;28;20044;-78
2022/05/24 04:34:51;;;;;;;7.25;3.35;;;;;;;15.98;94.51;95277.59;5094097;28;20044;-78
2022/05/24 04:37:18;;;;;;;5.40;3.05;;;;;;;16.01;94.55;95288.59;5090379;28;20052;-77
2022/05/24 04:39:44;;;;;;;6.50;3.25;;;;;;;16.03;94.58;95291.00;5090391;28;20040;-78
2022/05/24 04:42:19;;;;;;;6.50;2.75;;;;;;;15.97;93.73;95292.47;5090522;28;20050;-77
2022/05/24 04:44:49;;;;;;;5.72;2.90;;;;;;;16.01;93.58;95298.78;5088240;28;20040;-76
2022/05/24 04:47:17;;;;;;;6.85;3.25;;;;;;;15.91;93.66;95301.06;5091031;28;20044;-77
2022/05/24 04:49:46;;;;;;;9.75;3.30;;;;;;;15.95;93.76;95300.31;5091648;28;20047;-78
2022/05/24 04:52:14;;;;;;;5.57;2.92;;;;;;;15.93;93.30;95300.69;5090083;28;20044;-76
2022/05/24 04:54:42;;;;;;;6.07;2.83;;;;;;;15.96;93.25;95294.44;5090316;28;20059;-78
2022/05/24 04:57:09;;;;;;;5.80;3.15;;;;;;;16.00;93.40;95291.72;5090157;28;20048;-78
2022/05/24 04:59:36;;;;;;;5.07;2.80;;;;;;;16.02;93.26;95303.13;5090238;28;20051;-77
2022/05/24 05:02:05;;;;;;;7.07;2.78;;;;;;;16.01;92.79;95301.53;5089855;28;20514;-77
2022/05/24 05:04:31;;;;;;;6.35;3.03;;;;;;;16.06;92.63;95306.69;5090347;28;20499;-77
2022/05/24 05:06:58;;;;;;;6.78;3.17;;;;;;;16.12;92.26;95299.69;5090472;28;20044;-76
2022/05/24 05:09:25;;;;;;;6.55;3.22;;;;;;;16.10;92.09;95302.03;5089944;28;20419;-78
2022/05/24 05:11:52;;;;;;;5.70;3.60;;;;;;;16.08;92.17;95294.19;5090579;28;20040;-76
2022/05/24 05:14:18;;;;;;;6.97;2.97;;;;;;;15.90;92.78;95294.00;5089501;28;20040;-76
2022/05/24 05:16:45;;;;;;;8.68;3.03;;;;;;;15.81;93.44;95290.75;5090473;28;20047;-79
2022/05/24 05:19:13;;;;;;;7.18;2.88;;;;;;;15.78;94.01;95315.44;5090248;28;20115;-77
2022/05/24 05:21:41;;;;;;;5.97;3.20;;;;;;;15.74;94.82;95312.66;5090593;28;20048;-77
2022/05/24 05:24:09;;;;;;;6.22;3.20;;;;;;;15.71;94.75;95313.41;5092453;28;20044;-77
2022/05/24 05:26:36;;;;;;;6.82;3.53;;;;;;;15.54;95.34;95313.97;5094346;28;20044;-77
2022/05/24 05:29:02;;;;;;;7.45;4.10;;;;;;;15.50;96.10;95305.69;5094313;28;20491;-77
2022/05/24 05:31:28;;;;;;;7.93;3.67;;;;;;;15.55;96.22;95308.09;5094824;28;20415;-78
2022/05/24 05:33:56;;;;;;;7.63;3.90;;;;;;;15.60;96.30;95301.50;5094715;28;20048;-78
2022/05/24 05:36:27;;;;;;;5.85;3.33;;;;;;;15.53;95.92;95304.16;5094153;28;20044;-78
2022/05/24 05:38:54;;;;;;;7.07;3.38;;;;;;;15.43;95.84;95305.63;5094569;28;20052;-77
2022/05/24 05:41:22;;;;;;;7.07;3.00;;;;;;;15.25;96.58;95302.69;5094032;28;20055;-78
2022/05/24 05:43:50;;;;;;;6.35;3.47;;;;;;;15.17;98.09;95306.50;5092683;28;20047;-78
2022/05/24 05:46:17;;;;;;;6.93;3.78;;;;;;;15.19;98.38;95304.19;5093259;28;20055;-78
2022/05/24 05:48:44;;;;;;;6.70;3.22;;;;;;;15.27;98.43;95308.56;5094380;28;20044;-78
2022/05/24 05:51:13;;;;;;;9.35;4.15;;;;;;;15.23;98.64;95315.97;5093477;28;20411;-79
2022/05/24 05:53:42;;;;;;;7.78;4.43;;;;;;;15.31;98.63;95317.66;5094156;28;20050;-78
2022/05/24 05:56:13;;;;;;;8.55;4.32;;;;;;;15.37;98.77;95316.16;5093098;28;20407;-78
2022/05/24 05:58:40;;;;;;;6.72;3.47;;;;;;;15.29;98.75;95330.91;5094384;28;20039;-78
2022/05/24 06:01:06;;;;;;;6.95;4.22;;;;;;;15.33;98.87;95329.03;5093457;28;20040;-77
2022/05/24 06:03:33;;;;;;;10.68;3.33;;;;;;;15.26;98.33;95328.94;5094013;28;20510;-79
2022/05/24 06:06:00;;;;;;;7.13;3.10;;;;;;;15.22;98.75;95324.56;5094229;28;20051;-78
2022/05/24 06:08:27;;;;;;;6.13;3.60;;;;;;;15.22;99.17;95317.13;5093003;28;20044;-77
2022/05/24 06:10:55;;;;;;;5.68;3.20;;;;;;;15.28;99.39;95328.56;5093066;28;20036;-78
2022/05/24 06:13:22;;;;;;;10.25;3.40;;;;;;;15.31;99.33;95325.09;5091275;28;20052;-78
2022/05/24 06:15:51;;;;;;;7.93;3.50;;;;;;;15.38;98.87;95334.19;5094456;28;20040;-79
2022/05/24 06:18:17;;;;;;;6.40;3.80;;;;;;;15.37;98.54;95342.78;5093936;28;20132;-78
2022/05/24 06:20:44;;;;;;;7.20;4.35;;;;;;;15.47;98.83;95347.63;5093607;28;20040;-79
2022/05/24 06:23:11;;;;;;;5.38;3.42;;;;;;;15.54;98.21;95347.69;5092676;28;20047;-79
2022/05/24 06:25:39;;;;;;;5.65;3.20;;;;;;;15.54;97.47;95346.91;5115690;22;20053;-77
2022/05/24 06:28:07;;;;;;;5.30;3.00;;;;;;;15.51;97.26;95353.94;5112445;28;20044;-77
2022/05/24 06:30:34;;;;;;;6.03;2.67;;;;;;;15.56;97.61;95352.81;5106378;28;20066;-76
2022/05/24 06:33:00;;;;;;;5.78;3.17;;;;;;;15.60;98.02;95351.69;5092041;28;20051;-78
2022/05/24 06:35:27;;;;;;;8.75;2.75;;;;;;;15.64;97.80;95354.50;5090572;28;20779;-76
2022/05/24 06:37:54;;;;;;;5.60;3.42;;;;;;;15.51;97.56;95353.94;5092107;28;20090;-77
2022/05/24 06:40:21;;;;;;;5.55;2.92;;;;;;;15.61;97.59;95360.72;5090924;28;20517;-76
2022/05/24 06:42:48;;;;;;;6.25;3.53;;;;;;;15.65;97.51;95362.34;5101955;28;20043;-76
2022/05/24 06:45:16;;;;;;;4.88;2.95;;;;;;;15.63;97.56;95361.16;5111732;28;20043;-76
2022/05/24 06:47:42;;;;;;;6.20;3.22;;;;;;;15.72;97.83;95364.41;5101208;28;20050;-76
2022/05/24 06:50:12;;;;;;;5.35;2.90;;;;;;;15.68;98.04;95363.56;5111448;28;20066;-76
2022/05/24 06:52:38;;;;;;;7.53;2.85;;;;;;;15.77;98.71;95361.31;5112170;28;20047;-76
2022/05/24 06:55:06;;;;;;;6.57;3.72;;;;;;;15.77;97.33;95361.31;5111615;28;20044;-78
2022/05/24 06:57:32;;;;;;;7.47;3.50;;;;;;;15.81;98.21;95364.88;5111687;28;20485;-78
2022/05/24 07:02:41;;;;;;;6.53;3.38;;;;;;;15.96;96.76;95373.28;5077093;28;20100;-76
2022/05/24 07:05:10;;;;;;;6.78;3.33;;;;;;;15.98;95.75;95370.97;5111162;28;20054;-76
2022/05/24 07:07:38;;;;;;;5.05;3.15;;;;;;;16.06;95.45;95380.84;5111844;28;20048;-76
2022/05/24 07:10:07;;;;;;;5.82;2.80;;;;;;;16.07;94.58;95385.94;5110696;28;20044;-76
2022/05/24 07:12:34;;;;;;;6.00;2.90;;;;;;;16.08;94.94;95392.25;5091012;28;20047;-77
2022/05/24 07:15:00;;;;;;;6.43;2.70;;;;;;;16.10;94.02;95393.44;5091321;28;20056;-75
2022/05/24 07:17:27;;;;;;;3.83;2.60;;;;;;;16.09;93.65;95400.09;5089724;28;20048;-75
2022/05/24 07:19:55;;;;;;;5.15;2.50;;;;;;;16.05;92.99;95393.00;5091614;28;20048;-79
2022/05/24 07:22:22;;;;;;;4.20;2.67;;;;;;;16.11;92.69;95402.47;5090825;28;20058;-79
2022/05/24 07:24:49;;;;;;;4.60;2.70;;;;;;;16.16;92.72;95404.88;5093027;28;20051;-79
2022/05/24 07:27:18;;;;;;;5.63;2.90;;;;;;;16.17;92.47;95414.69;5092855;28;20048;-79
2022/05/24 07:29:45;;;;;;;4.47;2.63;;;;;;;16.10;91.94;95417.38;5093157;28;20051;-79
2022/05/24 07:32:12;;;;;;;4.60;2.47;;;;;;;16.05;92.28;95410.25;5092869;28;20044;-80
2022/05/24 07:34:39;;;;;;;4.28;2.20;;;;;;;16.05;93.04;95406.72;5081558;28;20043;-79
2022/05/24 07:37:08;;;;;;;4.68;3.25;;;;;;;16.03;92.63;95417.31;5092640;28;20048;-79
2022/05/24 07:39:35;;;;;;;4.78;3.40;;;;;;;15.96;93.33;95417.22;5093219;28;20044;-79
2022/05/24 07:47:30;;;;;;;4.85;3.25;;;;;;;16.00;94.32;95423.53;5090582;28;20044;-80
2022/05/24 07:49:57;;;;;;;8.73;3.40;;;;;;;16.06;93.77;95433.81;5093031;28;20048;-78
2022/05/24 07:52:25;;;;;;;6.15;3.53;;;;;;;16.01;93.76;95430.59;5093541;28;20044;-77
2022/05/24 07:54:52;;;;;;;11.32;4.30;;;;;;;15.83;94.90;95442.19;5090724;28;20040;-77
2022/05/24 07:57:19;;;;;;;5.03;3.22;;;;;;;15.85;95.31;95444.53;5090178;28;20066;-77
2022/05/24 07:59:47;;;;;;;9.30;3.83;;;;;;;15.82;95.89;95446.09;5090673;28;20766;-78
2022/05/24 08:02:14;;;;;;;5.47;3.50;;;;;;;15.78;96.16;95450.75;5089926;28;20043;-78
2022/05/24 08:04:41;;;;;;;10.18;3.90;;;;;;;15.69;96.17;95463.94;5090501;28;20506;-79
2022/05/24 08:07:08;;;;;;;6.68;4.00;;;;;;;15.70;96.73;95456.50;5089884;28;20048;-77
2022/05/24 08:09:36;;;;;;;8.40;4.57;;;;;;;15.69;96.91;95460.41;5090614;28;20044;-76
2022/05/24 08:12:02;;;;;;;8.52;4.70;;;;;;;15.67;97.28;95460.78;5089546;28;20137;-76
2022/05/24 08:14:29;;;;;;;8.10;3.90;;;;;;;15.69;97.55;95469.44;5090377;28;20044;-77
2022/05/24 08:16:55;;;;;;;7.18;4.22;;;;;;;15.72;97.21;95476.16;5090334;28;20056;-77
2022/05/24 08:19:22;;;;;;;8.45;3.92;;;;;;;15.65;97.52;95476.81;5089824;28;20051;-78
2022/05/24 08:21:48;;;;;;;12.18;4.70;;;;;;;15.56;96.96;95481.78;5090347;28;20048;-77
2022/05/24 08:24:16;;;;;;;13.05;4.00;;;;;;;15.42;96.16;95500.78;5089562;28;20052;-78
2022/05/24 08:26:44;;;;;;;7.50;3.42;;;;;;;15.33;96.87;95499.09;5090071;28;20135;-77
2022/05/24 08:29:10;;;;;;;6.68;2.90;;;;;;;15.26;96.71;95501.72;5089556;28;20048;-77
2022/05/24 08:31:37;;;;;;;5.70;2.55;;;;;;;15.14;96.43;95510.16;5090063;28;20057;-78
2022/05/24 08:34:03;;;;;;;6.32;2.47;;;;;;;15.09;96.92;95513.22;5089753;28;20136;-77
2022/05/24 08:36:30;;;;;;;4.97;2.75;;;;;;;14.96;97.28;95520.81;5090011;28;20434;-77
2022/05/24 08:38:56;;;;;;;8.60;3.05;;;;;;;14.95;97.90;95518.47;5089828;28;20044;-78
2022/05/24 08:41:33;;;;;;;8.18;3.33;;;;;;;14.86;98.00;95515.97;5089543;28;20546;-77
2022/05/24 08:49:51;;;;;;;5.25;3.35;;;;;;;14.86;99.53;95532.41;5090007;28;20697;-78
2022/05/24 08:52:19;;;;;;;4.88;3.05;;;;;;;14.82;99.82;95532.34;5089340;28;20063;-77
2022/05/24 08:54:47;;;;;;;5.30;3.15;;;;;;;14.83;99.85;95544.91;5089779;28;20144;-79
2022/05/24 08:57:18;;;;;;;5.50;3.70;;;;;;;14.88;100.00;95541.84;5089203;28;20040;-78
2022/05/24 08:59:50;;;;;;;7.25;3.50;;;;;;;14.94;100.00;95550.56;5093615;28;20047;-77
2022/05/24 09:02:16;;;;;;;6.00;3.47;;;;;;;14.90;99.78;95548.91;5093430;28;20047;-77
2022/05/24 09:04:42;;;;;;;9.07;3.63;;;;;;;14.84;99.92;95554.69;5093732;28;20040;-77
2022/05/24 09:07:19;;;;;;;6.78;3.88;;;;;;;14.88;100.00;95544.59;5093230;28;20048;-78
2022/05/24 09:09:55;;;;;;;6.47;4.13;;;;;;;14.93;100.00;95553.66;5093754;28;20044;-78
2022/05/24 09:12:41;;;;;;;5.93;3.67;;;;;;;14.96;99.83;95550.19;5092809;28;20059;-76
2022/05/24 09:15:16;;;;;;;6.15;3.83;;;;;;;14.98;99.73;95545.13;5089566;28;20047;-77
2022/05/24 09:17:57;;;;;;;7.25;4.10;;;;;;;14.92;99.40;95552.88;5093697;28;20054;-77
2022/05/24 09:20:35;;;;;;;5.35;3.78;;;;;;;14.97;100.00;95555.31;5093087;28;20043;-78
2022/05/24 09:23:07;;;;;;;5.93;4.32;;;;;;;14.99;100.00;95560.44;5093076;28;20044;-74
2022/05/24 09:25:33;;;;;;;6.47;4.05;;;;;;;14.99;100.00;95553.00;5093433;28;20517;-77
2022/05/24 09:27:59;;;;;;;5.13;3.47;;;;;;;15.04;100.00;95555.44;5093327;28;20040;-78
2022/05/24 09:30:42;;;;;;;6.22;3.78;;;;;;;14.94;99.79;95549.78;5092860;28;20070;-78
2022/05/24 09:33:22;;;;;;;5.93;4.38;;;;;;;15.02;100.00;95548.72;5092785;28;20041;-77
2022/05/24 09:35:51;;;;;;;6.80;4.75;;;;;;;15.10;99.93;95547.69;5093157;28;20064;-78
2022/05/24 09:38:22;;;;;;;7.40;4.70;;;;;;;15.16;100.00;95543.50;5091663;28;20051;-77
2022/05/24 09:40:52;;;;;;;6.55;5.32;;;;;;;15.18;99.80;95543.13;5093216;28;20044;-77
2022/05/24 09:43:26;;;;;;;6.53;4.70;;;;;;;15.21;99.72;95543.19;5092069;28;20117;-77
2022/05/24 09:45:58;;;;;;;5.72;3.95;;;;;;;15.28;99.67;95543.28;5093232;28;20127;-78
2022/05/24 09:48:28;;;;;;;8.40;4.32;;;;;;;15.30;98.93;95546.47;5092559;28;20055;-78
2022/05/24 09:50:56;;;;;;;7.25;3.55;;;;;;;15.18;96.72;95541.16;5092938;28;20055;-77
2022/05/24 09:53:26;;;;;;;6.40;3.80;;;;;;;15.20;96.98;95547.09;5092381;28;20043;-77
2022/05/24 09:55:59;;;;;;;4.15;2.85;;;;;;;15.09;96.56;95537.91;5092760;28;20044;-78
2022/05/24 09:58:29;;;;;;;4.30;2.92;;;;;;;15.04;96.25;95541.75;5092347;28;20044;-77
2022/05/24 10:01:00;;;;;;;6.63;2.92;;;;;;;14.99;95.63;95539.28;5092721;28;20059;-77
2022/05/24 10:03:30;;;;;;;8.35;3.40;;;;;;;15.02;95.88;95545.97;5092520;28;20044;-77
2022/05/24 10:06:03;;;;;;;7.03;3.10;;;;;;;15.14;95.67;95554.84;5092779;28;20044;-77
2022/05/24 10:08:36;;;;;;;8.75;4.43;;;;;;;15.24;95.59;95558.09;5091965;28;20486;-77
2022/05/24 10:11:04;;;;;;;7.75;4.50;;;;;;;15.26;95.95;95562.06;5090881;28;20043;-77
2022/05/24 10:13:40;;;;;;;7.97;3.70;;;;;;;15.26;95.73;95575.78;5092091;28;20036;-78
2022/05/24 10:16:17;;;;;;;6.45;3.55;;;;;;;15.20;95.58;95577.25;5091682;28;20048;-77
2022/05/24 10:19:07;;;;;;;4.57;3.88;;;;;;;15.20;95.93;95588.22;5092462;28;20532;-78
2022/05/24 10:21:39;;;;;;;10.27;3.83;;;;;;;15.25;96.55;95587.91;5092357;28;20044;-78
2022/05/24 10:24:24;;;;;;;6.40;4.05;;;;;;;15.20;96.18;95601.94;5091647;28;20055;-77
2022/05/24 10:26:57;;;;;;;7.85;4.22;;;;;;;15.26;95.87;95605.16;5091728;28;20522;-79
2022/05/24 10:29:39;;;;;;;5.50;3.30;;;;;;;15.30;95.40;95606.81;5091630;28;20044;-77
2022/05/24 10:38:17;;;;;;;6.10;2.80;;;;;;;15.24;94.43;95608.25;5091773;28;20052;-78
2022/05/24 10:38:20;;;;;;;8.20;3.30;;;;;;;15.31;93.19;95618.56;5092225;28;20098;-78
2022/05/24 10:40:54;;;;;;;7.72;3.20;;;;;;;15.29;94.52;95616.19;5076760;28;20040;-78
2022/05/24 10:43:37;;;;;;;5.72;2.80;;;;;;;15.35;93.22;95613.94;5091189;28;20047;-78
2022/05/24 10:46:10;;;;;;;7.07;3.20;;;;;;;15.40;91.54;95611.69;5091477;28;20051;-78
2022/05/24 10:48:44;;;;;;;6.15;2.05;;;;;;;15.39;90.93;95615.56;5091967;28;20510;-77
2022/05/24 10:51:17;;;;;;;4.35;2.47;;;;;;;15.37;91.00;95615.16;5091267;28;20052;-78
2022/05/24 10:53:48;;;;;;;;;;;;;;;15.39;90.89;95618.31;5091075;28;20040;-77
2022/05/24 10:56:34;;;;;;;5.18;2.83;;;;;;;15.39;91.53;95621.03;5091021;28;19955;-78
2022/05/24 10:59:08;;;;;;;8.02;3.20;;;;;;;15.40;91.99;95622.66;5091501;28;20510;-78
2022/05/24 11:01:40;;;;;;;7.20;2.70;;;;;;;15.44;91.40;95635.63;5091711;28;20040;-77
2022/05/24 11:04:11;;;;;;;4.85;2.00;;;;;;;15.37;89.90;95634.34;5091016;28;20052;-79
2022/05/24 11:06:41;;;;;;;3.53;1.98;;;;;;;15.35;89.78;95633.94;5091429;28;20415;-78
2022/05/24 11:09:11;;;;;;;2.85;1.60;;;;;;;15.28;87.67;95631.06;5090909;28;20055;-79
2022/05/24 11:11:47;;;;;;;3.15;1.70;;;;;;;15.06;87.01;95635.38;5090845;28;20740;-79
2022/05/24 11:14:21;;;;;;;6.55;2.53;;;;;;;14.81;89.13;95645.88;5091043;28;20048;-76
2022/05/24 11:16:50;;;;;;;9.05;2.42;;;;;;;14.73;90.75;95635.94;5091356;28;20040;-77
2022/05/24 11:19:21;;;;;;;4.82;2.60;;;;;;;14.61;91.09;95645.06;5090095;28;20055;-77
2022/05/24 11:21:52;;;;;;;6.82;2.50;;;;;;;14.60;91.75;95638.03;5090399;28;20040;-78
2022/05/24 11:24:25;;;;;;;5.00;2.42;;;;;;;14.67;91.61;95644.78;5090773;28;20043;-77
2022/05/24 11:26:56;;;;;;;10.85;2.80;;;;;;;14.61;92.23;95633.31;5090899;28;20050;-78
2022/05/24 11:29:28;;;;;;;5.93;3.15;;;;;;;14.68;92.32;95630.75;5090581;28;20051;-78
2022/05/24 11:32:01;;;;;;;7.32;3.03;;;;;;;14.70;92.76;95633.91;5090951;28;20048;-77
2022/05/24 11:34:33;;;;;;;4.60;2.67;;;;;;;14.77;92.70;95634.06;5089847;28;20048;-78
2022/05/24 11:37:09;;;;;;;6.13;2.85;;;;;;;14.65;92.03;95628.72;5090987;28;20392;-78
2022/05/24 11:39:38;;;;;;;5.93;2.80;;;;;;;14.65;92.33;95625.19;5090719;28;20128;-77
2022/05/24 11:42:24;;;;;;;5.18;2.45;;;;;;;14.68;93.01;95625.28;5089928;28;20445;-79
2022/05/24 11:44:53;;;;;;;6.75;2.58;;;;;;;14.66;93.02;95627.56;5090737;28;20051;-77
2022/05/24 11:47:56;;;;;;;3.03;2.20;;;;;;;14.51;92.57;95631.16;5090197;28;20071;-78
2022/05/24 11:50:46;;;;;;;6.90;4.03;;;;;;;14.45;92.38;95630.63;5047389;28;20044;-77
2022/05/24 11:53:39;;;;;;;7.43;3.00;;;;;;;14.57;93.14;95630.53;5090254;28;20058;-78
2022/05/24 11:56:21;;;;;;;5.82;3.00;;;;;;;14.62;92.50;95632.19;5090209;28;20051;-79
2022/05/24 11:58:57;;;;;;;8.90;3.25;;;;;;;14.69;92.38;95629.59;5090518;28;20086;-77
2022/05/24 12:01:49;;;;;;;5.18;2.75;;;;;;;14.81;92.46;95634.13;5090169;28;20059;-77
2022/05/24 12:10:46;;;;;;;7.10;3.05;;;;;;;14.63;93.95;95652.97;5089735;28;20510;-79
2022/05/24 12:13:32;;;;;;;6.15;3.10;;;;;;;14.61;94.55;95652.50;5089307;28;20129;-77
2022/05/24 12:16:02;;;;;;;5.07;3.65;;;;;;;14.70;94.94;95661.31;5090046;28;20044;-77
2022/05/24 12:18:44;;;;;;;7.03;3.58;;;;;;;14.69;97.13;95681.66;5089937;28;20093;-77